This is the latest recevied weather packets stored in our database for station/object KELD. If no packets are shown the sender has not sent any weather packets the latest 10 day(s).
| Time | Temp. | Humidity | Pressure | Rain* | Wind** | Luminosity | Snow |
|---|---|---|---|---|---|---|---|
| 1777580612 | 17.78° C | 67% | 1015.2 hPa | - | - | - | - |
| 1777579410 | 17.78° C | 67% | 1015.2 hPa | - | - | - | - |
| 1777578812 | 17.78° C | 63% | 1015.2 hPa | - | - | - | - |
| 1777576411 | 17.78° C | 63% | 1015.2 hPa | - | - | - | - |
| 1777570410 | 17.78° C | 63% | 1015.6 hPa | - | - | - | - |
| 1777569808 | 17.78° C | 63% | 1015.6 hPa | - | - | - | - |
| 1777569212 | 17.78° C | 63% | 1015.6 hPa | - | - | - | - |
| 1777566209 | 16.67° C | 67% | 1015.9 hPa | - | - | - | - |
| 1777565022 | 16.67° C | 67% | 1015.9 hPa | - | - | - | - |
| 1777564412 | 15.56° C | 77% | 1016.3 hPa | - | - | - | - |
| 1777559610 | 15° C | 82% | 1015.6 hPa | - | - | - | - |
| 1777559009 | 15° C | 82% | 1015.6 hPa | - | - | - | - |
| 1777557810 | 15° C | 82% | 1015.6 hPa | - | - | - | - |
| 1777554810 | 13.89° C | 87% | 1015.2 hPa | - | - | - | - |
| 1777554209 | 13.89° C | 87% | 1015.2 hPa | - | - | - | - |
| 1777553612 | 15° C | 93% | 1014.6 hPa | - | - | - | - |
| 1777548813 | 15° C | 93% | 1014.2 hPa | - | - | - | - |
| 1777548213 | 15° C | 93% | 1014.2 hPa | - | - | - | - |
| 1777547608 | 15° C | 93% | 1014.2 hPa | - | - | - | - |
| 1777547012 | 15° C | 93% | 1014.2 hPa | - | - | - | - |
| 1777545212 | 15° C | 93% | 1014.6 hPa | - | - | - | - |
| 1777544616 | 15° C | 93% | 1014.6 hPa | - | - | - | - |
| 1777544013 | 15° C | 93% | 1014.6 hPa | - | - | - | - |
| 1777543532 | 15° C | 93% | 1014.6 hPa | - | - | - | - |
| 1777541616 | 15.56° C | 87% | 1014.6 hPa | - | - | - | - |
* Rain since midnight (hover to see other rain measurements)
** Current wind speed in m/s (hover to see current wind gust speed)